createdAt,value
2024-05-09T00:01:22.947Z,1.14
2024-05-09T00:02:23.035Z,1.12
2024-05-09T00:03:22.917Z,1.11
2024-05-09T00:04:22.975Z,1.10
2024-05-09T00:05:22.981Z,1.12
2024-05-09T00:06:22.852Z,1.09
2024-05-09T00:07:22.938Z,1.10
2024-05-09T00:08:22.896Z,1.06
2024-05-09T00:09:22.811Z,1.11
2024-05-09T00:10:29.247Z,1.11
2024-05-09T00:11:23.912Z,1.11
2024-05-09T00:12:22.939Z,1.11
2024-05-09T00:13:22.792Z,1.12
2024-05-09T00:14:22.889Z,1.12
2024-05-09T00:15:22.772Z,1.12
2024-05-09T00:16:22.773Z,1.12
2024-05-09T00:17:22.932Z,1.07
2024-05-09T00:18:22.913Z,1.09
2024-05-09T00:19:22.937Z,1.10
2024-05-09T00:20:28.429Z,1.09
2024-05-09T00:21:23.759Z,1.09
2024-05-09T00:22:22.757Z,1.10
2024-05-09T00:23:22.830Z,1.09
2024-05-09T00:24:22.737Z,1.10
2024-05-09T00:25:22.743Z,1.08
2024-05-09T00:26:22.815Z,1.10
2024-05-09T00:27:22.741Z,1.09
2024-05-09T00:28:22.724Z,1.10
2024-05-09T00:29:22.748Z,1.09
2024-05-09T00:30:31.086Z,1.09
2024-05-09T00:31:23.707Z,1.10
2024-05-09T00:32:22.821Z,1.10
2024-05-09T00:33:22.873Z,1.11
2024-05-09T00:34:22.798Z,1.10
2024-05-09T00:35:22.731Z,1.08
2024-05-09T00:36:22.698Z,1.10
2024-05-09T00:37:22.662Z,1.08
2024-05-09T00:38:22.750Z,1.07
2024-05-09T00:39:22.654Z,1.08
2024-05-09T00:40:30.969Z,1.07
2024-05-09T00:41:23.765Z,1.07
2024-05-09T00:42:22.642Z,1.07
2024-05-09T00:43:22.630Z,1.08
2024-05-09T00:44:22.798Z,1.08
2024-05-09T00:45:22.606Z,1.08
2024-05-09T00:46:22.601Z,1.08
2024-05-09T00:47:22.761Z,1.08
2024-05-09T00:48:22.692Z,1.08
2024-05-09T00:49:22.756Z,1.07
2024-05-09T00:50:29.594Z,1.07
2024-05-09T00:51:23.571Z,1.07
2024-05-09T00:52:22.536Z,1.07
2024-05-09T00:53:22.565Z,1.07
2024-05-09T00:54:22.533Z,1.08
2024-05-09T00:55:22.529Z,1.09
2024-05-09T00:56:22.618Z,1.07
2024-05-09T00:57:22.512Z,1.09
2024-05-09T00:58:22.503Z,1.06
2024-05-09T00:59:22.643Z,1.05
2024-05-09T01:00:31.105Z,1.06
2024-05-09T01:01:23.520Z,1.06
2024-05-09T01:02:22.671Z,1.06
2024-05-09T01:03:22.988Z,1.07
2024-05-09T01:04:22.504Z,1.07
2024-05-09T01:05:22.492Z,1.07
2024-05-09T01:06:22.485Z,1.05
2024-05-09T01:07:22.479Z,1.06
2024-05-09T01:08:22.473Z,1.03
2024-05-09T01:09:22.458Z,1.04
2024-05-09T01:10:28.153Z,1.06
2024-05-09T01:11:23.581Z,1.07
2024-05-09T01:12:22.611Z,1.07
2024-05-09T01:13:22.456Z,1.07
2024-05-09T01:14:22.447Z,1.07
2024-05-09T01:15:22.475Z,1.06
2024-05-09T01:16:22.449Z,1.04
2024-05-09T01:17:22.593Z,1.06
2024-05-09T01:18:22.564Z,1.06
2024-05-09T01:19:22.524Z,1.06
2024-05-09T01:21:22.457Z,1.04
2024-05-09T01:22:22.439Z,1.04
2024-05-09T01:23:22.544Z,1.03
2024-05-09T01:24:22.432Z,1.03
2024-05-09T01:25:22.435Z,1.01
2024-05-09T01:26:22.473Z,1.02
2024-05-09T01:27:22.482Z,1.05
2024-05-09T01:28:22.450Z,1.03
2024-05-09T01:29:22.567Z,1.02
2024-05-09T01:30:31.239Z,1.02
2024-05-09T01:31:23.433Z,1.02
2024-05-09T01:32:22.714Z,1.02
2024-05-09T01:33:22.639Z,1.03
2024-05-09T01:34:22.635Z,1.03
2024-05-09T01:35:22.471Z,1.04
2024-05-09T01:36:22.426Z,1.01
2024-05-09T01:37:22.445Z,1.01
2024-05-09T01:38:22.488Z,1.00
2024-05-09T01:39:22.451Z,1.01
2024-05-09T01:40:29.126Z,1.00
2024-05-09T01:41:23.478Z,1.00
2024-05-09T01:42:22.445Z,1.00
2024-05-09T01:43:22.430Z,1.00
2024-05-09T01:44:22.531Z,1.01
2024-05-09T01:45:22.420Z,1.00
2024-05-09T01:46:22.429Z,1.01
2024-05-09T01:47:22.592Z,1.01
2024-05-09T01:48:22.617Z,1.01
2024-05-09T01:49:22.518Z,1.00
2024-05-09T01:50:33.299Z,0.98
2024-05-09T01:51:23.451Z,0.98
2024-05-09T01:52:22.393Z,0.99
2024-05-09T01:53:22.445Z,0.98
2024-05-09T01:54:22.389Z,0.98
2024-05-09T01:55:22.379Z,0.98
2024-05-09T01:56:22.398Z,0.97
2024-05-09T01:57:22.370Z,0.98
2024-05-09T01:58:22.364Z,0.98
2024-05-09T01:59:22.492Z,0.99
2024-05-09T02:00:33.184Z,0.99
2024-05-09T02:01:23.361Z,0.99
2024-05-09T02:02:22.412Z,0.99
2024-05-09T02:03:22.446Z,1.00
2024-05-09T02:04:22.475Z,1.00
2024-05-09T02:05:22.404Z,0.99
2024-05-09T02:06:22.304Z,0.98
2024-05-09T02:07:22.310Z,0.98
2024-05-09T02:08:22.483Z,0.98
2024-05-09T02:09:22.290Z,0.98
2024-05-09T02:10:26.426Z,1.00
2024-05-09T02:11:23.334Z,1.00
2024-05-09T02:12:22.458Z,1.00
2024-05-09T02:13:22.266Z,1.00
2024-05-09T02:14:22.315Z,0.98
2024-05-09T02:15:22.249Z,1.00
2024-05-09T02:16:22.264Z,0.99
2024-05-09T02:17:22.610Z,0.96
2024-05-09T02:18:22.431Z,0.98
2024-05-09T02:19:22.514Z,0.98
2024-05-09T02:20:29.798Z,0.97
2024-05-09T02:21:23.223Z,0.97
2024-05-09T02:22:22.244Z,0.98
2024-05-09T02:23:22.288Z,0.99
2024-05-09T02:24:22.225Z,0.97
2024-05-09T02:25:22.196Z,1.00
2024-05-09T02:26:22.298Z,0.99
2024-05-09T02:27:22.179Z,1.00
2024-05-09T02:28:22.174Z,0.99
2024-05-09T02:29:22.383Z,0.99
2024-05-09T02:30:26.385Z,1.00
2024-05-09T02:31:23.139Z,1.01
2024-05-09T02:32:22.300Z,1.00
2024-05-09T02:33:22.451Z,0.99
2024-05-09T02:34:22.242Z,0.99
2024-05-09T02:35:22.164Z,1.01
2024-05-09T02:36:22.107Z,1.00
2024-05-09T02:37:22.104Z,1.00
2024-05-09T02:38:22.118Z,0.99
2024-05-09T02:39:22.084Z,1.01
2024-05-09T02:41:22.120Z,1.04
2024-05-09T02:42:22.084Z,0.99
2024-05-09T02:43:22.059Z,0.98
2024-05-09T02:44:22.096Z,1.00
2024-05-09T02:45:22.067Z,1.00
2024-05-09T02:46:22.052Z,0.98
2024-05-09T02:47:22.256Z,0.99
2024-05-09T02:48:22.220Z,1.00
2024-05-09T02:49:22.086Z,0.98
2024-05-09T02:51:22.030Z,0.99
2024-05-09T02:52:22.039Z,0.99
2024-05-09T02:53:22.070Z,0.97
2024-05-09T02:54:22.007Z,0.99
2024-05-09T02:55:22.012Z,0.97
2024-05-09T02:56:22.082Z,1.00
2024-05-09T02:57:22.014Z,0.98
2024-05-09T02:58:22.009Z,0.96
2024-05-09T02:59:22.247Z,0.97
2024-05-09T03:00:26.514Z,0.98
2024-05-09T03:01:23.041Z,0.98
2024-05-09T03:02:22.198Z,0.99
2024-05-09T03:03:22.442Z,0.99
2024-05-09T03:04:21.991Z,0.99
2024-05-09T03:05:21.968Z,0.99
2024-05-09T03:06:21.927Z,0.99
2024-05-09T03:07:21.926Z,0.99
2024-05-09T03:08:22.028Z,0.97
2024-05-09T03:09:21.913Z,0.99
2024-05-09T03:10:25.446Z,0.98
2024-05-09T03:11:22.954Z,0.98
2024-05-09T03:12:21.923Z,0.98
2024-05-09T03:13:21.870Z,0.99
2024-05-09T03:14:21.963Z,0.99
2024-05-09T03:15:21.858Z,1.00
2024-05-09T03:16:21.855Z,0.99
2024-05-09T03:17:21.954Z,0.99
2024-05-09T03:18:21.980Z,0.98
2024-05-09T03:19:22.136Z,0.99
2024-05-09T03:20:27.349Z,0.96
2024-05-09T03:21:22.841Z,0.97
2024-05-09T03:22:21.827Z,0.97
2024-05-09T03:23:21.898Z,0.97
2024-05-09T03:24:21.804Z,0.99
2024-05-09T03:25:21.793Z,0.97
2024-05-09T03:26:21.844Z,0.97
2024-05-09T03:27:21.796Z,0.99
2024-05-09T03:28:21.791Z,0.98
2024-05-09T03:29:21.859Z,0.98
2024-05-09T03:30:28.734Z,0.97
2024-05-09T03:31:22.770Z,0.97
2024-05-09T03:32:21.907Z,0.97
2024-05-09T03:33:22.270Z,0.97
2024-05-09T03:34:21.763Z,0.97
2024-05-09T03:35:21.832Z,0.99
2024-05-09T03:36:21.687Z,0.98
2024-05-09T03:37:21.680Z,0.98
2024-05-09T03:38:21.726Z,0.95
2024-05-09T03:39:21.662Z,0.96
2024-05-09T03:40:26.374Z,0.95
2024-05-09T03:41:23.014Z,0.95
2024-05-09T03:42:21.631Z,0.96
2024-05-09T03:43:21.637Z,0.96
2024-05-09T03:44:21.650Z,0.95
2024-05-09T03:45:21.609Z,0.96
2024-05-09T03:46:21.603Z,0.95
2024-05-09T03:47:21.904Z,0.94
2024-05-09T03:48:21.800Z,0.95
2024-05-09T03:49:21.958Z,0.94
2024-05-09T03:50:26.188Z,0.96
2024-05-09T03:51:22.559Z,0.97
2024-05-09T03:52:21.558Z,0.97
2024-05-09T03:53:21.549Z,0.97
2024-05-09T03:54:21.527Z,0.96
2024-05-09T03:55:21.531Z,0.95
2024-05-09T03:56:21.539Z,0.95
2024-05-09T03:57:21.590Z,0.94
2024-05-09T03:58:21.512Z,0.95
2024-05-09T03:59:21.533Z,0.93
2024-05-09T04:00:26.682Z,0.94
2024-05-09T04:01:22.538Z,0.94
2024-05-09T04:02:21.637Z,0.95
2024-05-09T04:03:21.629Z,0.95
2024-05-09T04:04:21.504Z,0.95
2024-05-09T04:05:21.501Z,0.97
2024-05-09T04:06:21.458Z,0.93
2024-05-09T04:07:21.475Z,0.93
2024-05-09T04:08:21.592Z,0.93
2024-05-09T04:09:21.441Z,0.92
2024-05-09T04:10:27.945Z,0.93
2024-05-09T04:11:22.489Z,0.94
2024-05-09T04:12:21.498Z,0.94
2024-05-09T04:13:21.615Z,0.95
2024-05-09T04:14:21.537Z,0.95
2024-05-09T04:15:21.450Z,0.91
2024-05-09T04:16:21.396Z,0.93
2024-05-09T04:17:21.436Z,0.94
2024-05-09T04:18:21.515Z,0.95
2024-05-09T04:19:21.620Z,0.93
2024-05-09T04:20:32.386Z,0.94
2024-05-09T04:21:22.359Z,0.94
2024-05-09T04:22:21.410Z,0.94
2024-05-09T04:23:21.399Z,0.94
2024-05-09T04:24:21.371Z,0.94
2024-05-09T04:25:21.386Z,0.96
2024-05-09T04:26:21.450Z,0.94
2024-05-09T04:27:21.439Z,0.94
2024-05-09T04:28:21.461Z,0.92
2024-05-09T04:29:21.373Z,0.93
2024-05-09T04:30:30.244Z,0.92
2024-05-09T04:31:22.327Z,0.92
2024-05-09T04:32:21.585Z,0.92
2024-05-09T04:33:21.660Z,0.93
2024-05-09T04:34:21.446Z,0.94
2024-05-09T04:35:21.367Z,0.93
2024-05-09T04:36:21.263Z,0.93
2024-05-09T04:37:21.255Z,0.94
2024-05-09T04:38:21.324Z,0.93
2024-05-09T04:39:21.250Z,0.90
2024-05-09T04:40:28.341Z,0.92
2024-05-09T04:41:22.278Z,0.92
2024-05-09T04:42:21.226Z,0.93
2024-05-09T04:43:21.216Z,0.93
2024-05-09T04:44:21.261Z,0.93
2024-05-09T04:45:21.199Z,0.94
2024-05-09T04:46:21.204Z,0.92
2024-05-09T04:47:21.381Z,0.94
2024-05-09T04:48:28.942Z,0.50
2024-05-09T04:49:28.856Z,0.50
2024-05-09T04:50:35.958Z,0.50
2024-05-09T04:51:29.718Z,0.50
2024-05-09T04:52:28.701Z,0.50
2024-05-09T04:53:28.710Z,0.50
2024-05-09T04:54:35.811Z,0.50
2024-05-09T04:55:29.687Z,0.50
2024-05-09T04:56:28.745Z,0.50
2024-05-09T04:57:28.653Z,0.50
2024-05-09T04:58:28.637Z,0.50
2024-05-09T04:59:28.650Z,0.50
2024-05-09T05:00:35.337Z,0.51
2024-05-09T05:01:29.615Z,0.51
2024-05-09T05:02:28.649Z,0.51
2024-05-09T05:03:28.760Z,0.51
2024-05-09T05:04:28.599Z,0.50
2024-05-09T05:05:28.659Z,0.51
2024-05-09T05:06:28.540Z,0.50
2024-05-09T05:07:28.531Z,0.51
2024-05-09T05:08:28.636Z,0.51
2024-05-09T05:09:28.519Z,0.52
2024-05-09T05:10:34.024Z,0.51
2024-05-09T05:11:29.582Z,0.51
2024-05-09T05:12:28.669Z,0.51
2024-05-09T05:13:28.476Z,0.51
2024-05-09T05:14:28.564Z,0.51
2024-05-09T05:15:28.471Z,0.50
2024-05-09T05:16:28.450Z,0.52
2024-05-09T05:17:28.571Z,0.51
2024-05-09T05:18:28.672Z,0.51
2024-05-09T05:19:28.689Z,0.51
2024-05-09T05:20:33.511Z,0.51
2024-05-09T05:21:29.418Z,0.51
2024-05-09T05:22:28.420Z,0.52
2024-05-09T05:23:28.513Z,0.51
2024-05-09T05:24:28.406Z,0.51
2024-05-09T05:25:28.385Z,0.51
2024-05-09T05:26:28.433Z,0.52
2024-05-09T05:27:28.374Z,0.51
2024-05-09T05:28:28.383Z,0.51
2024-05-09T05:29:28.431Z,0.51
2024-05-09T05:30:32.922Z,0.52
2024-05-09T05:31:29.386Z,0.52
2024-05-09T05:32:28.503Z,0.52
2024-05-09T05:33:28.516Z,0.52
2024-05-09T05:34:28.316Z,0.52
2024-05-09T05:35:28.508Z,0.52
2024-05-09T05:36:28.287Z,0.52
2024-05-09T05:37:28.280Z,0.51
2024-05-09T05:38:28.819Z,0.51
2024-05-09T05:39:28.280Z,0.52
2024-05-09T05:40:35.543Z,0.51
2024-05-09T05:41:29.370Z,0.51
2024-05-09T05:42:28.262Z,0.51
2024-05-09T05:43:28.244Z,0.51
2024-05-09T05:44:28.322Z,0.51
2024-05-09T05:45:28.231Z,0.52
2024-05-09T05:46:28.227Z,0.52
2024-05-09T05:47:28.394Z,0.51
2024-05-09T05:48:28.366Z,0.51
2024-05-09T05:49:28.298Z,0.52
2024-05-09T05:50:35.420Z,0.51
2024-05-09T05:51:29.203Z,0.51
2024-05-09T05:52:28.197Z,0.51
2024-05-09T05:53:28.198Z,0.52
2024-05-09T05:54:28.176Z,0.52
2024-05-09T05:55:28.182Z,0.51
2024-05-09T05:56:28.242Z,0.52
2024-05-09T05:57:28.145Z,0.52
2024-05-09T05:58:28.151Z,0.51
2024-05-09T05:59:28.224Z,0.51
2024-05-09T06:00:34.786Z,0.51
2024-05-09T06:01:29.335Z,0.51
2024-05-09T06:02:28.282Z,0.51
2024-05-09T06:03:28.283Z,0.51
2024-05-09T06:04:28.244Z,0.52
2024-05-09T06:05:28.312Z,0.52
2024-05-09T06:06:28.181Z,0.52
2024-05-09T06:07:28.167Z,0.50
2024-05-09T06:08:30.316Z,0.50
2024-05-09T06:09:28.250Z,0.52
2024-05-09T06:10:35.130Z,0.51
2024-05-09T06:11:29.388Z,0.51
2024-05-09T06:12:28.399Z,0.52
2024-05-09T06:13:28.239Z,0.52
2024-05-09T06:14:28.298Z,0.52
2024-05-09T06:15:28.211Z,0.51
2024-05-09T06:16:28.206Z,0.52
2024-05-09T06:17:28.354Z,0.50
2024-05-09T06:18:28.386Z,0.53
2024-05-09T06:19:28.470Z,0.51
2024-05-09T06:20:35.255Z,0.50
2024-05-09T06:21:29.353Z,0.50
2024-05-09T06:22:28.303Z,0.51
2024-05-09T06:23:28.373Z,0.51
2024-05-09T06:24:28.270Z,0.50
2024-05-09T06:25:28.332Z,0.51
2024-05-09T06:26:28.261Z,0.52
2024-05-09T06:27:28.270Z,0.52
2024-05-09T06:28:28.209Z,0.51
2024-05-09T06:29:28.394Z,0.53
2024-05-09T06:30:37.000Z,0.50
2024-05-09T06:31:29.295Z,0.50
2024-05-09T06:32:28.424Z,0.50
2024-05-09T06:33:28.615Z,0.51
2024-05-09T06:34:28.312Z,0.51
2024-05-09T06:35:28.418Z,0.51
2024-05-09T06:36:28.235Z,0.51
2024-05-09T06:37:28.197Z,0.51
2024-05-09T06:38:28.215Z,0.52
2024-05-09T06:39:28.179Z,0.52
2024-05-09T06:40:35.790Z,0.52
2024-05-09T06:41:29.299Z,0.52
2024-05-09T06:42:28.199Z,0.52
2024-05-09T06:43:28.178Z,0.52
2024-05-09T06:44:28.339Z,0.53
2024-05-09T06:45:28.167Z,0.53
2024-05-09T06:46:28.150Z,0.52
2024-05-09T06:47:28.392Z,0.52
2024-05-09T06:48:28.231Z,0.53
2024-05-09T06:49:28.194Z,0.52
2024-05-09T06:50:31.539Z,0.51
2024-05-09T06:51:29.088Z,0.51
2024-05-09T06:52:28.075Z,0.52
2024-05-09T06:53:28.130Z,0.52
2024-05-09T06:54:28.043Z,0.53
2024-05-09T06:55:28.035Z,0.52
2024-05-09T06:56:28.115Z,0.53
2024-05-09T06:57:28.002Z,0.53
2024-05-09T06:58:27.997Z,0.52
2024-05-09T06:59:28.017Z,0.52
2024-05-09T07:00:35.674Z,0.53
2024-05-09T07:01:29.065Z,0.53
2024-05-09T07:02:28.046Z,0.53
2024-05-09T07:03:28.095Z,0.52
2024-05-09T07:04:28.099Z,0.52
2024-05-09T07:05:28.006Z,0.53
2024-05-09T07:06:27.912Z,0.52
2024-05-09T07:07:27.899Z,0.52
2024-05-09T07:08:28.000Z,0.52
2024-05-09T07:09:27.922Z,0.52
2024-05-09T07:10:34.098Z,0.51
2024-05-09T07:11:29.033Z,0.51
2024-05-09T07:12:28.074Z,0.51
2024-05-09T07:13:27.922Z,0.51
2024-05-09T07:14:27.965Z,0.51
2024-05-09T07:15:27.883Z,0.51
2024-05-09T07:16:27.863Z,0.51
2024-05-09T07:17:28.041Z,0.52
2024-05-09T07:18:28.063Z,0.50
2024-05-09T07:19:27.943Z,0.51
2024-05-09T07:20:34.150Z,0.51
2024-05-09T07:21:28.818Z,0.51
2024-05-09T07:22:27.800Z,0.51
2024-05-09T07:23:27.825Z,0.51
2024-05-09T07:24:27.793Z,0.51
2024-05-09T07:25:27.761Z,0.50
2024-05-09T07:26:27.891Z,0.51
2024-05-09T07:27:27.738Z,0.52
2024-05-09T07:28:27.702Z,0.51
2024-05-09T07:29:27.869Z,0.51
2024-05-09T07:30:33.198Z,0.51
2024-05-09T07:31:28.687Z,0.51
2024-05-09T07:32:27.813Z,0.51
2024-05-09T07:33:27.766Z,0.51
2024-05-09T07:34:27.671Z,0.52
2024-05-09T07:35:27.850Z,0.51
2024-05-09T07:36:27.564Z,0.51
2024-05-09T07:37:27.564Z,0.51
2024-05-09T07:38:27.551Z,0.52
2024-05-09T07:39:27.515Z,0.52
2024-05-09T07:40:34.878Z,0.51
2024-05-09T07:41:28.525Z,0.52
2024-05-09T07:42:27.463Z,0.52
2024-05-09T07:43:27.463Z,0.52
2024-05-09T07:44:27.574Z,0.52
2024-05-09T07:45:44.947Z,0.52
2024-05-09T07:47:36.476Z,0.51
2024-05-09T07:50:00.269Z,0.52
2024-05-09T07:53:32.374Z,0.52
2024-05-09T07:53:39.917Z,0.52
2024-05-09T07:54:28.434Z,0.52
2024-05-09T07:55:27.348Z,0.53
2024-05-09T07:56:27.857Z,0.54
2024-05-09T07:57:27.246Z,0.55
2024-05-09T07:58:27.591Z,0.55
2024-05-09T07:59:27.150Z,0.54
2024-05-09T08:00:31.362Z,0.55
2024-05-09T08:01:28.309Z,0.55
2024-05-09T08:02:27.203Z,0.54
2024-05-09T08:03:27.150Z,0.55
2024-05-09T08:04:27.175Z,0.54
2024-05-09T08:05:27.176Z,0.54
2024-05-09T08:06:27.141Z,0.53
2024-05-09T08:07:27.009Z,0.51
2024-05-09T08:08:27.014Z,0.52
2024-05-09T08:09:27.040Z,0.52
2024-05-09T08:10:28.986Z,0.52
2024-05-09T08:11:27.007Z,0.51
2024-05-09T08:12:27.027Z,0.51
2024-05-09T08:13:27.033Z,0.51
2024-05-09T08:14:27.035Z,0.52
2024-05-09T08:15:27.174Z,0.52
2024-05-09T08:16:27.158Z,0.52
2024-05-09T08:17:27.173Z,0.51
2024-05-09T08:18:27.411Z,0.52
2024-05-09T08:19:27.196Z,0.52
2024-05-09T08:20:33.403Z,0.51
2024-05-09T08:21:28.195Z,0.51
2024-05-09T08:22:27.145Z,0.51
2024-05-09T08:23:27.148Z,0.51
2024-05-09T08:24:27.127Z,0.51
2024-05-09T08:25:27.228Z,0.51
2024-05-09T08:26:27.086Z,0.51
2024-05-09T08:27:27.109Z,0.51
2024-05-09T08:28:27.188Z,0.52
2024-05-09T08:29:27.014Z,0.51
2024-05-09T08:30:33.499Z,0.50
2024-05-09T08:31:28.047Z,0.50
2024-05-09T08:32:27.052Z,0.50
2024-05-09T08:33:27.091Z,0.51
2024-05-09T08:34:26.982Z,0.51
2024-05-09T08:35:26.894Z,0.50
2024-05-09T08:36:26.938Z,0.52
2024-05-09T08:37:31.053Z,0.52
2024-05-09T08:38:27.839Z,0.52
2024-05-09T08:39:26.823Z,0.52
2024-05-09T08:40:34.087Z,0.52
2024-05-09T08:41:27.769Z,0.52
2024-05-09T08:42:26.791Z,0.52
2024-05-09T08:43:26.807Z,0.52
2024-05-09T08:44:26.714Z,0.52
2024-05-09T08:45:26.713Z,0.51
2024-05-09T08:46:26.810Z,0.51
2024-05-09T08:47:26.809Z,0.51
2024-05-09T08:48:26.787Z,0.51
2024-05-09T08:49:26.739Z,0.52
2024-05-09T08:50:35.360Z,0.51
2024-05-09T08:51:27.608Z,0.51
2024-05-09T08:52:26.533Z,0.51
2024-05-09T08:53:26.513Z,0.52
2024-05-09T08:54:26.500Z,0.51
2024-05-09T08:55:26.470Z,0.52
2024-05-09T08:56:26.463Z,0.51
2024-05-09T08:57:26.433Z,0.50
2024-05-09T08:58:26.464Z,0.51
2024-05-09T08:59:26.391Z,0.52
2024-05-09T09:00:34.125Z,0.52
2024-05-09T09:01:27.413Z,0.52
2024-05-09T09:02:26.460Z,0.52
2024-05-09T09:03:26.338Z,0.52
2024-05-09T09:04:26.332Z,0.52
2024-05-09T09:05:26.418Z,0.53
2024-05-09T09:06:26.236Z,0.52
2024-05-09T09:07:26.262Z,0.52
2024-05-09T09:08:26.168Z,0.51
2024-05-09T09:09:26.152Z,0.52
2024-05-09T09:10:31.797Z,0.52
2024-05-09T09:11:27.113Z,0.52
2024-05-09T09:12:26.070Z,0.52
2024-05-09T09:13:26.056Z,0.53
2024-05-09T09:14:26.026Z,0.52
2024-05-09T09:15:26.011Z,0.52
2024-05-09T09:16:26.092Z,0.52
2024-05-09T09:17:26.024Z,0.51
2024-05-09T09:18:26.069Z,0.51
2024-05-09T09:19:26.141Z,0.51
2024-05-09T09:20:33.334Z,0.51
2024-05-09T09:21:26.994Z,0.51
2024-05-09T09:22:25.855Z,0.51
2024-05-09T09:23:25.843Z,0.51
2024-05-09T09:24:25.820Z,0.52
2024-05-09T09:25:25.800Z,0.52
2024-05-09T09:26:25.789Z,0.52
2024-05-09T09:27:25.775Z,0.52
2024-05-09T09:28:25.760Z,0.51
2024-05-09T09:29:25.737Z,0.51
2024-05-09T09:30:34.797Z,0.51
2024-05-09T09:31:26.751Z,0.51
2024-05-09T09:32:25.760Z,0.51
2024-05-09T09:33:25.707Z,0.52
2024-05-09T09:34:25.696Z,0.51
2024-05-09T09:35:25.612Z,0.53
2024-05-09T09:36:25.586Z,0.51
2024-05-09T09:37:25.575Z,0.51
2024-05-09T09:38:25.549Z,0.52
2024-05-09T09:39:25.532Z,0.51
2024-05-09T09:40:31.405Z,0.51
2024-05-09T09:41:26.474Z,0.52
2024-05-09T09:42:25.458Z,0.52
2024-05-09T09:43:25.482Z,0.51
2024-05-09T09:44:25.414Z,0.52
2024-05-09T09:45:25.409Z,0.51
2024-05-09T09:46:25.536Z,0.51
2024-05-09T09:47:25.379Z,0.50
2024-05-09T09:48:25.461Z,0.51
2024-05-09T09:49:25.427Z,0.51
2024-05-09T09:51:25.274Z,0.51
2024-05-09T09:52:25.279Z,0.51
2024-05-09T09:53:25.229Z,0.52
2024-05-09T09:54:25.206Z,0.52
2024-05-09T09:55:25.269Z,0.52
2024-05-09T09:56:25.175Z,0.52
2024-05-09T09:57:25.193Z,0.51
2024-05-09T09:58:25.263Z,0.50
2024-05-09T09:59:25.221Z,0.51
2024-05-09T10:00:30.577Z,0.52
2024-05-09T10:01:26.275Z,0.52
2024-05-09T10:02:25.276Z,0.52
2024-05-09T10:03:25.220Z,0.52
2024-05-09T10:04:25.210Z,0.52
2024-05-09T10:05:25.401Z,0.51
2024-05-09T10:06:25.108Z,0.52
2024-05-09T10:07:25.062Z,0.52
2024-05-09T10:08:25.041Z,0.52
2024-05-09T10:09:25.059Z,0.52
2024-05-09T10:10:31.478Z,0.51
2024-05-09T10:11:26.048Z,0.51
2024-05-09T10:12:24.994Z,0.51
2024-05-09T10:13:25.025Z,0.51
2024-05-09T10:14:24.904Z,0.51
2024-05-09T10:15:24.891Z,0.52
2024-05-09T10:16:24.962Z,0.52
2024-05-09T10:17:24.957Z,0.51
2024-05-09T10:18:28.330Z,0.52
2024-05-09T10:19:25.863Z,0.52
2024-05-09T10:20:28.114Z,0.52
2024-05-09T10:21:25.780Z,0.52
2024-05-09T10:22:24.754Z,0.52
2024-05-09T10:23:24.727Z,0.52
2024-05-09T10:24:24.682Z,0.53
2024-05-09T10:25:24.752Z,0.52
2024-05-09T10:26:24.643Z,0.53
2024-05-09T10:27:24.626Z,0.51
2024-05-09T10:28:24.613Z,0.52
2024-05-09T10:29:24.592Z,0.52
2024-05-09T10:30:33.427Z,0.51
2024-05-09T10:31:25.584Z,0.52
2024-05-09T10:32:24.656Z,0.52
2024-05-09T10:33:24.559Z,0.52
2024-05-09T10:34:24.818Z,0.52
2024-05-09T10:35:24.454Z,0.52
2024-05-09T10:36:24.446Z,0.51
2024-05-09T10:37:24.569Z,0.51
2024-05-09T10:38:24.386Z,0.52
2024-05-09T10:39:24.359Z,0.51
2024-05-09T10:40:30.979Z,0.52
2024-05-09T10:41:25.295Z,0.52
2024-05-09T10:42:24.263Z,0.52
2024-05-09T10:43:24.287Z,0.52
2024-05-09T10:44:24.222Z,0.51
2024-05-09T10:45:24.183Z,0.51
2024-05-09T10:46:24.227Z,0.52
2024-05-09T10:47:24.386Z,0.51
2024-05-09T10:48:24.299Z,0.51
2024-05-09T10:49:24.220Z,0.50
2024-05-09T10:50:28.667Z,0.51
2024-05-09T10:51:25.037Z,0.51
2024-05-09T10:52:24.097Z,0.52
2024-05-09T10:53:24.008Z,0.52
2024-05-09T10:54:23.956Z,0.52
2024-05-09T10:55:24.054Z,0.53
2024-05-09T10:56:23.941Z,0.54
2024-05-09T10:57:23.909Z,0.53
2024-05-09T10:58:23.927Z,0.52
2024-05-09T10:59:23.848Z,0.52
2024-05-09T11:00:30.533Z,0.53
2024-05-09T11:01:24.875Z,0.53
2024-05-09T11:02:24.005Z,0.54
2024-05-09T11:03:23.891Z,0.53
2024-05-09T11:04:23.808Z,0.54
2024-05-09T11:05:23.818Z,0.54
2024-05-09T11:06:23.721Z,0.53
2024-05-09T11:07:23.829Z,0.53
2024-05-09T11:08:23.673Z,0.53
2024-05-09T11:09:23.639Z,0.54
2024-05-09T11:10:27.600Z,0.53
2024-05-09T11:11:24.592Z,0.53
2024-05-09T11:12:24.791Z,0.53
2024-05-09T11:13:23.542Z,0.54
2024-05-09T11:14:23.532Z,0.53
2024-05-09T11:15:23.502Z,0.54
2024-05-09T11:16:23.554Z,0.54
2024-05-09T11:17:23.523Z,0.54
2024-05-09T11:18:24.952Z,0.55
2024-05-09T11:19:23.805Z,0.55
2024-05-09T11:20:29.496Z,0.54
2024-05-09T11:21:24.728Z,0.54
2024-05-09T11:22:23.638Z,0.54
2024-05-09T11:23:23.583Z,0.54
2024-05-09T11:24:23.557Z,0.54
2024-05-09T11:25:23.545Z,0.55
2024-05-09T11:26:23.493Z,0.55
2024-05-09T11:27:23.487Z,0.54
2024-05-09T11:28:23.491Z,0.54
2024-05-09T11:29:23.414Z,0.53
2024-05-09T11:30:29.799Z,0.55
2024-05-09T11:31:24.623Z,0.55
2024-05-09T11:32:23.377Z,0.55
2024-05-09T11:33:23.355Z,0.55
2024-05-09T11:34:23.366Z,0.55
2024-05-09T11:35:23.305Z,0.54
2024-05-09T11:36:23.284Z,0.55
2024-05-09T11:37:23.264Z,0.53
2024-05-09T11:38:23.241Z,0.55
2024-05-09T11:39:23.216Z,0.54
2024-05-09T11:40:25.805Z,0.54
2024-05-09T11:41:24.185Z,0.55
2024-05-09T11:42:23.160Z,0.55
2024-05-09T11:43:23.310Z,0.55
2024-05-09T11:44:23.124Z,0.54
2024-05-09T11:45:23.542Z,0.55
2024-05-09T11:46:23.265Z,0.55
2024-05-09T11:47:23.195Z,0.55
2024-05-09T11:48:23.108Z,0.56
2024-05-09T11:49:26.316Z,0.55
2024-05-09T11:50:29.687Z,0.55
2024-05-09T11:51:23.966Z,0.55
2024-05-09T11:52:22.988Z,0.55
2024-05-09T11:53:22.975Z,0.55
2024-05-09T11:54:22.911Z,0.55
2024-05-09T11:55:25.629Z,0.55
2024-05-09T11:56:23.538Z,0.55
2024-05-09T11:57:22.845Z,0.55
2024-05-09T11:58:23.106Z,0.55
2024-05-09T11:59:22.810Z,0.54
2024-05-09T12:00:33.671Z,0.55
2024-05-09T12:01:26.939Z,0.55
2024-05-09T12:02:22.987Z,0.55
2024-05-09T12:03:22.820Z,0.55
2024-05-09T12:04:22.877Z,0.55
2024-05-09T12:05:22.879Z,0.54
2024-05-09T12:06:22.646Z,0.55
2024-05-09T12:07:22.764Z,0.54
2024-05-09T12:08:22.623Z,0.54
2024-05-09T12:09:22.592Z,0.54
2024-05-09T12:10:29.584Z,0.54
2024-05-09T12:11:23.624Z,0.54
2024-05-09T12:12:22.531Z,0.54
2024-05-09T12:13:22.649Z,0.55
2024-05-09T12:14:22.481Z,0.55
2024-05-09T12:15:22.472Z,0.53
2024-05-09T12:16:22.609Z,0.53
2024-05-09T12:17:22.486Z,0.53
2024-05-09T12:18:22.491Z,0.53
2024-05-09T12:19:22.429Z,0.54
2024-05-09T12:20:28.830Z,0.52
2024-05-09T12:21:23.329Z,0.52
2024-05-09T12:22:22.331Z,0.52
2024-05-09T12:23:22.300Z,0.52
2024-05-09T12:24:22.276Z,0.53
2024-05-09T12:25:22.290Z,0.53
2024-05-09T12:26:22.241Z,0.53
2024-05-09T12:27:22.218Z,0.52
2024-05-09T12:28:22.293Z,0.53
2024-05-09T12:29:22.204Z,0.53
2024-05-09T12:30:32.683Z,0.53
2024-05-09T12:31:23.198Z,0.53
2024-05-09T12:32:22.246Z,0.53
2024-05-09T12:33:22.194Z,0.53
2024-05-09T12:34:22.203Z,0.53
2024-05-09T12:35:22.074Z,0.52
2024-05-09T12:36:22.061Z,0.52
2024-05-09T12:37:22.077Z,0.52
2024-05-09T12:38:22.014Z,0.51
2024-05-09T12:39:22.022Z,0.52
2024-05-09T12:40:30.758Z,0.52
2024-05-09T12:41:22.970Z,0.53
2024-05-09T12:42:27.269Z,0.53
2024-05-09T12:43:23.092Z,0.53
2024-05-09T12:44:21.904Z,0.53
2024-05-09T12:45:21.890Z,0.53
2024-05-09T12:46:21.981Z,0.53
2024-05-09T12:47:21.944Z,0.52
2024-05-09T12:48:21.934Z,0.52
2024-05-09T12:49:21.987Z,0.52
2024-05-09T12:50:29.226Z,0.51
2024-05-09T12:51:22.786Z,0.52
2024-05-09T12:52:21.837Z,0.52
2024-05-09T12:53:21.752Z,0.52
2024-05-09T12:54:21.736Z,0.52
2024-05-09T12:55:21.732Z,0.51
2024-05-09T12:56:21.691Z,0.51
2024-05-09T12:57:21.681Z,0.51
2024-05-09T12:58:21.689Z,0.51
2024-05-09T12:59:21.623Z,0.51
2024-05-09T13:00:27.996Z,0.51
2024-05-09T13:01:22.656Z,0.52
2024-05-09T13:02:21.680Z,0.52
2024-05-09T13:03:21.985Z,0.51
2024-05-09T13:04:21.628Z,0.51
2024-05-09T13:05:21.649Z,0.51
2024-05-09T13:06:21.481Z,0.51
2024-05-09T13:07:21.517Z,0.51
2024-05-09T13:08:21.455Z,0.51
2024-05-09T13:09:21.430Z,0.51
2024-05-09T13:10:28.910Z,0.52
2024-05-09T13:11:22.479Z,0.52
2024-05-09T13:12:21.722Z,0.52
2024-05-09T13:13:21.433Z,0.52
2024-05-09T13:14:21.344Z,0.52
2024-05-09T13:15:21.317Z,0.52
2024-05-09T13:16:21.509Z,0.52
2024-05-09T13:17:21.358Z,0.51
2024-05-09T13:18:21.298Z,0.51
2024-05-09T13:19:21.307Z,0.51
2024-05-09T13:20:29.211Z,0.51
2024-05-09T13:21:22.195Z,0.51
2024-05-09T13:22:21.209Z,0.51
2024-05-09T13:23:21.144Z,0.51
2024-05-09T13:24:21.138Z,0.51
2024-05-09T13:25:21.137Z,0.51
2024-05-09T13:26:21.098Z,0.51
2024-05-09T13:27:21.070Z,0.52